Papaaloa, Hawaii
Current Conditions -  °F | °C
As of 6:53 PM on Tuesday 21 Oct 2014 (Local Time) from PHTO Reporting Station
Clear Clear  
Wind Chill: 77°   Ceiling: Unl
Heat Index: 78°   Visibility: 10mi
Dew Point: 72°   Wind: 5mph
Humidity: 84%   Direction: 210°SSW
Pressure: 29.99"   Gusts: NA
Location:  19.97°N, 155.22°W
Report Text: PHTO 220453Z 21004KT 10SM CLR 25/22 A2999 RMK AO2 SLP154 T02500222
Loading
Personal Weather Stations






























Interactive Weather Map
Tropical Storm Tracking
New forecast layout! Learn more

10-Day Weather Forecast

Advertisements
Track Severe Weather on mobile